Time;durP1;ratioP1;P1;durP2;ratioP2;P2;SDS_P1;SDS_P2;PMS_P1;PMS_P2;Temp;Humidity;BMP_temperature;BMP_pressure;BME280_temperature;BME280_humidity;BME280_pressure;Samples;Min_cycle;Max_cycle;Signal;HPM_P1;HPM_P2
2023/09/20 00:01:21;;;;;;;;;;;;;;;;;;5052958;28;19921;-66
2023/09/20 00:03:48;;;;;;;;;;;;;;;;;;5043825;28;19925;-66
2023/09/20 00:06:16;;;;;;;;;;;;;;;;;;5051114;28;19925;-66
2023/09/20 00:08:42;;;;;;;;;;;;;;;;;;5041213;28;19933;-66
2023/09/20 00:11:15;;;;;;;;;;;;;;;;;;5060434;28;20446;-67
2023/09/20 00:13:41;;;;;;;;;;;;;;;;;;5046253;28;19928;-67
2023/09/20 00:16:07;;;;;;;;;;;;;;;;;;5049494;28;19929;-67
2023/09/20 00:18:34;;;;;;;;;;;;;;;;;;5041592;28;20009;-67
2023/09/20 00:21:01;;;;;;;;;;;;;;;;;;5046268;28;19936;-67
2023/09/20 00:23:27;;;;;;;;;;;;;;;;;;5055994;22;19925;-64
2023/09/20 00:25:53;;;;;;;;;;;;;;;;;;5047192;28;20386;-65
2023/09/20 00:28:19;;;;;;;;;;;;;;;;;;5048146;28;19972;-65
2023/09/20 00:30:45;;;;;;;;;;;;;;;;;;5044334;28;20297;-65
2023/09/20 00:33:11;;;;;;;;;;;;;;;;;;5049616;28;19928;-65
2023/09/20 00:35:36;;;;;;;;;;;;;;;;;;5049067;28;19925;-65
2023/09/20 00:38:02;;;;;;;;;;;;;;;;;;5053576;28;19932;-65
2023/09/20 00:40:28;;;;;;;;;;;;;;;;;;5048172;28;20002;-65
2023/09/20 00:42:54;;;;;;;;;;;;;;;;;;5051748;28;19925;-65
2023/09/20 00:45:21;;;;;;;;;;;;;;;;;;5051243;28;20008;-65
2023/09/20 00:47:47;;;;;;;;;;;;;;;;;;5065975;28;19963;-65
2023/09/20 00:50:13;;;;;;;;;;;;;;;;;;5048826;28;19927;-65
2023/09/20 00:52:39;;;;;;;;;;;;;;;;;;5049754;28;19925;-65
2023/09/20 00:55:06;;;;;;;;;;;;;;;;;;5049302;28;19925;-65
2023/09/20 00:57:32;;;;;;;;;;;;;;;;;;5050654;28;19920;-65
2023/09/20 00:59:58;;;;;;;;;;;;;;;;;;5051697;28;19975;-65
2023/09/20 01:02:24;;;;;;;;;;;;;;;;;;5044723;28;19964;-65
2023/09/20 01:04:50;;;;;;;;;;;;;;;;;;5058353;28;19925;-65
2023/09/20 01:07:18;;;;;;;;;;;;;;;;;;5050276;28;19931;-65
2023/09/20 01:09:43;;;;;;;;;;;;;;;;;;5048143;28;20006;-65
2023/09/20 01:12:09;;;;;;;;;;;;;;;;;;5052316;28;19921;-65
2023/09/20 01:14:35;;;;;;;;;;;;;;;;;;5048936;28;20285;-65
2023/09/20 01:17:01;;;;;;;;;;;;;;;;;;5048591;28;19963;-65
2023/09/20 01:19:28;;;;;;;;;;;;;;;;;;5049495;28;19964;-65
2023/09/20 01:21:54;;;;;;;;;;;;;;;;;;5051077;28;20616;-65
2023/09/20 01:24:20;;;;;;;;;;;;;;;;;;5052262;28;19943;-65
2023/09/20 01:26:46;;;;;;;;;;;;;;;;;;5050839;28;20317;-65
2023/09/20 01:29:12;;;;;;;;;;;;;;;;;;5068345;28;19990;-65
2023/09/20 01:31:38;;;;;;;;;;;;;;;;;;5050373;28;19931;-65
2023/09/20 01:34:03;;;;;;;;;;;;;;;;;;5047971;28;19959;-65
2023/09/20 01:36:30;;;;;;;;;;;;;;;;;;5051233;28;19924;-65
2023/09/20 01:38:56;;;;;;;;;;;;;;;;;;5049053;28;19929;-65
2023/09/20 01:41:22;;;;;;;;;;;;;;;;;;5047180;28;20098;-65
2023/09/20 01:43:48;;;;;;;;;;;;;;;;;;5048178;28;19979;-65
2023/09/20 01:46:14;;;;;;;;;;;;;;;;;;5053454;28;19931;-65
2023/09/20 01:48:40;;;;;;;;;;;;;;;;;;5051116;28;19920;-65
2023/09/20 01:51:06;;;;;;;;;;;;;;;;;;5046960;28;19929;-65
2023/09/20 01:53:32;;;;;;;;;;;;;;;;;;5050385;28;19927;-65
2023/09/20 01:55:58;;;;;;;;;;;;;;;;;;5047020;28;19929;-65
2023/09/20 01:58:24;;;;;;;;;;;;;;;;;;5049829;28;19927;-65
2023/09/20 02:00:50;;;;;;;;;;;;;;;;;;5046729;28;20366;-65
2023/09/20 02:03:16;;;;;;;;;;;;;;;;;;5050717;28;20019;-65
2023/09/20 02:05:44;;;;;;;;;;;;;;;;;;5047519;28;19929;-65
2023/09/20 02:08:09;;;;;;;;;;;;;;;;;;5053474;28;19956;-65
2023/09/20 02:10:36;;;;;;;;;;;;;;;;;;5049308;28;19998;-65
2023/09/20 02:13:03;;;;;;;;;;;;;;;;;;5049128;28;19921;-65
2023/09/20 02:15:29;;;;;;;;;;;;;;;;;;5047660;28;19965;-65
2023/09/20 02:17:55;;;;;;;;;;;;;;;;;;5051405;28;19967;-65
2023/09/20 02:20:24;;;;;;;;;;;;;;;;;;5049672;28;19968;-65
2023/09/20 02:22:51;;;;;;;;;;;;;;;;;;5061243;28;20344;-65
2023/09/20 02:25:26;;;;;;;;;;;;;;;;;;5051135;28;20282;-65
2023/09/20 02:27:51;;;;;;;;;;;;;;;;;;5048989;28;19921;-65
2023/09/20 02:30:24;;;;;;;;;;;;;;;;;;5062620;28;19935;-65
2023/09/20 02:32:53;;;;;;;;;;;;;;;;;;5047656;28;20118;-65
2023/09/20 02:35:19;;;;;;;;;;;;;;;;;;5043602;28;19921;-65
2023/09/20 02:37:46;;;;;;;;;;;;;;;;;;5049456;28;19949;-65
2023/09/20 02:40:15;;;;;;;;;;;;;;;;;;5046731;28;19921;-65
2023/09/20 02:42:41;;;;;;;;;;;;;;;;;;5047971;28;19946;-65
2023/09/20 02:45:07;;;;;;;;;;;;;;;;;;5043706;28;19924;-65
2023/09/20 02:47:33;;;;;;;;;;;;;;;;;;5050569;28;20294;-65
2023/09/20 02:49:59;;;;;;;;;;;;;;;;;;5047470;28;19925;-65
2023/09/20 02:52:25;;;;;;;;;;;;;;;;;;5051255;28;20283;-65
2023/09/20 02:54:51;;;;;;;;;;;;;;;;;;5045836;28;20048;-65
2023/09/20 02:57:17;;;;;;;;;;;;;;;;;;5046529;28;19964;-65
2023/09/20 02:59:43;;;;;;;;;;;;;;;;;;5046510;28;19976;-65
2023/09/20 03:02:10;;;;;;;;;;;;;;;;;;5039965;28;19929;-65
2023/09/20 03:04:37;;;;;;;;;;;;;;;;;;5063798;28;20007;-65
2023/09/20 03:07:03;;;;;;;;;;;;;;;;;;5048710;28;19927;-65
2023/09/20 03:09:32;;;;;;;;;;;;;;;;;;5050683;28;19925;-65
2023/09/20 03:12:05;;;;;;;;;;;;;;;;;;5048075;28;20362;-65
2023/09/20 03:14:31;;;;;;;;;;;;;;;;;;5048019;28;19920;-65
2023/09/20 03:16:57;;;;;;;;;;;;;;;;;;5044672;28;19975;-65
2023/09/20 03:19:24;;;;;;;;;;;;;;;;;;5044001;28;19935;-65
2023/09/20 03:21:50;;;;;;;;;;;;;;;;;;5043622;28;19921;-65
2023/09/20 03:24:16;;;;;;;;;;;;;;;;;;5048173;28;20382;-65
2023/09/20 03:26:42;;;;;;;;;;;;;;;;;;5048051;28;19921;-65
2023/09/20 03:29:08;;;;;;;;;;;;;;;;;;5046826;28;20393;-65
2023/09/20 03:31:34;;;;;;;;;;;;;;;;;;5048436;28;20355;-66
2023/09/20 03:34:01;;;;;;;;;;;;;;;;;;5045884;28;19967;-65
2023/09/20 03:36:27;;;;;;;;;;;;;;;;;;5048832;28;19929;-64
2023/09/20 03:38:57;;;;;;;;;;;;;;;;;;5046854;28;20309;-64
2023/09/20 03:41:24;;;;;;;;;;;;;;;;;;5044455;28;19928;-64
2023/09/20 03:43:50;;;;;;;;;;;;;;;;;;5044821;28;20347;-65
2023/09/20 03:46:16;;;;;;;;;;;;;;;;;;5047713;28;20019;-65
2023/09/20 03:48:44;;;;;;;;;;;;;;;;;;5046804;28;19931;-64
2023/09/20 03:51:10;;;;;;;;;;;;;;;;;;5044401;28;19935;-64
2023/09/20 03:53:37;;;;;;;;;;;;;;;;;;5048328;28;20011;-65
2023/09/20 03:56:04;;;;;;;;;;;;;;;;;;5043149;28;19924;-64
2023/09/20 03:58:30;;;;;;;;;;;;;;;;;;5046444;28;20263;-64
2023/09/20 04:00:56;;;;;;;;;;;;;;;;;;5041733;28;19955;-65
2023/09/20 04:03:22;;;;;;;;;;;;;;;;;;5048575;28;19995;-65
2023/09/20 04:05:48;;;;;;;;;;;;;;;;;;5063173;28;19935;-65
2023/09/20 04:08:16;;;;;;;;;;;;;;;;;;5047732;28;19927;-65
2023/09/20 04:10:42;;;;;;;;;;;;;;;;;;5044390;28;20401;-65
2023/09/20 04:13:08;;;;;;;;;;;;;;;;;;5041151;28;20007;-65
2023/09/20 04:15:34;;;;;;;;;;;;;;;;;;5047408;28;19924;-65
2023/09/20 04:18:08;;;;;;;;;;;;;;;;;;5045442;28;19929;-65
2023/09/20 04:20:33;;;;;;;;;;;;;;;;;;5047432;28;19925;-65
2023/09/20 04:22:59;;;;;;;;;;;;;;;;;;5047004;28;19932;-65
2023/09/20 04:25:25;;;;;;;;;;;;;;;;;;5048080;28;19932;-65
2023/09/20 04:27:51;;;;;;;;;;;;;;;;;;5046110;28;19990;-65
2023/09/20 04:30:18;;;;;;;;;;;;;;;;;;5045315;28;19925;-64
2023/09/20 04:32:44;;;;;;;;;;;;;;;;;;5062583;28;19921;-64
2023/09/20 04:35:10;;;;;;;;;;;;;;;;;;5044908;28;19966;-64
2023/09/20 04:37:36;;;;;;;;;;;;;;;;;;5045403;28;19929;-64
2023/09/20 04:40:03;;;;;;;;;;;;;;;;;;5049252;28;19968;-65
2023/09/20 04:42:32;;;;;;;;;;;;;;;;;;5053832;28;19951;-64
2023/09/20 04:44:58;;;;;;;;;;;;;;;;;;5051621;28;19975;-64
2023/09/20 04:47:24;;;;;;;;;;;;;;;;;;5054038;28;19960;-64
2023/09/20 04:49:51;;;;;;;;;;;;;;;;;;5052373;28;20288;-64
2023/09/20 04:52:16;;;;;;;;;;;;;;;;;;5051156;28;19944;-64
2023/09/20 04:54:43;;;;;;;;;;;;;;;;;;5046890;28;20371;-64
2023/09/20 04:57:09;;;;;;;;;;;;;;;;;;5051915;28;19925;-64
2023/09/20 04:59:36;;;;;;;;;;;;;;;;;;5049305;28;19921;-64
2023/09/20 05:02:03;;;;;;;;;;;;;;;;;;5053181;28;20370;-64
2023/09/20 05:04:29;;;;;;;;;;;;;;;;;;5051704;28;19929;-65
2023/09/20 05:06:55;;;;;;;;;;;;;;;;;;5066207;28;19925;-64
2023/09/20 05:09:21;;;;;;;;;;;;;;;;;;5051425;28;20055;-65
2023/09/20 05:11:49;;;;;;;;;;;;;;;;;;5051901;28;19928;-64
2023/09/20 05:14:15;;;;;;;;;;;;;;;;;;5049948;28;19920;-64
2023/09/20 05:16:41;;;;;;;;;;;;;;;;;;5051352;28;19921;-64
2023/09/20 05:19:07;;;;;;;;;;;;;;;;;;5050792;28;19921;-65
2023/09/20 05:21:32;;;;;;;;;;;;;;;;;;5049206;28;20056;-65
2023/09/20 05:23:59;;;;;;;;;;;;;;;;;;5050423;28;20015;-65
2023/09/20 05:26:26;;;;;;;;;;;;;;;;;;5048605;28;19924;-64
2023/09/20 05:28:52;;;;;;;;;;;;;;;;;;5068152;28;19921;-64
2023/09/20 05:31:18;;;;;;;;;;;;;;;;;;5065605;28;20355;-64
2023/09/20 05:33:44;;;;;;;;;;;;;;;;;;5044440;28;19921;-65
2023/09/20 05:36:10;;;;;;;;;;;;;;;;;;5052500;28;20044;-65
2023/09/20 05:38:36;;;;;;;;;;;;;;;;;;5066640;28;19943;-65
2023/09/20 05:41:03;;;;;;;;;;;;;;;;;;5047027;28;19928;-65
2023/09/20 05:43:29;;;;;;;;;;;;;;;;;;5051114;28;19925;-65
2023/09/20 05:45:55;;;;;;;;;;;;;;;;;;5052700;28;19967;-65
2023/09/20 05:48:21;;;;;;;;;;;;;;;;;;5050504;28;19929;-65
2023/09/20 05:50:49;;;;;;;;;;;;;;;;;;5052854;28;19924;-64
2023/09/20 05:53:16;;;;;;;;;;;;;;;;;;5049560;28;20378;-65
2023/09/20 05:55:44;;;;;;;;;;;;;;;;;;5044987;28;19979;-64
2023/09/20 05:58:11;;;;;;;;;;;;;;;;;;5049295;28;19967;-64
2023/09/20 06:00:37;;;;;;;;;;;;;;;;;;5049536;28;19936;-64
2023/09/20 06:03:04;;;;;;;;;;;;;;;;;;5047259;28;19936;-65
2023/09/20 06:05:30;;;;;;;;;;;;;;;;;;5041962;28;20298;-64
2023/09/20 06:07:57;;;;;;;;;;;;;;;;;;5046693;28;19921;-65
2023/09/20 06:10:23;;;;;;;;;;;;;;;;;;5049120;28;19929;-64
2023/09/20 06:12:50;;;;;;;;;;;;;;;;;;5067263;28;19944;-64
2023/09/20 06:15:16;;;;;;;;;;;;;;;;;;5049692;28;19957;-65
2023/09/20 06:17:42;;;;;;;;;;;;;;;;;;5049874;28;19925;-65
2023/09/20 06:20:19;;;;;;;;;;;;;;;;;;5050251;28;20382;-65
2023/09/20 06:22:45;;;;;;;;;;;;;;;;;;5046670;28;19925;-65
2023/09/20 06:25:11;;;;;;;;;;;;;;;;;;5051375;28;20397;-65
2023/09/20 06:27:36;;;;;;;;;;;;;;;;;;5064390;28;19928;-64
2023/09/20 06:30:24;;;;;;;;;;;;;;;;;;5048125;28;20082;-64
2023/09/20 06:32:48;;;;;;;;;;;;;;;;;;5045314;28;19929;-65
2023/09/20 06:35:15;;;;;;;;;;;;;;;;;;5050832;28;19920;-65
2023/09/20 06:37:45;;;;;;;;;;;;;;;;;;5049837;28;19928;-65
2023/09/20 06:40:23;;;;;;;;;;;;;;;;;;5051701;28;20011;-65
2023/09/20 06:42:50;;;;;;;;;;;;;;;;;;5048749;28;19960;-64
2023/09/20 06:45:17;;;;;;;;;;;;;;;;;;5065154;28;20046;-65
2023/09/20 06:47:44;;;;;;;;;;;;;;;;;;5050398;28;20011;-65
2023/09/20 06:50:13;;;;;;;;;;;;;;;;;;5049510;28;19925;-65
2023/09/20 06:52:39;;;;;;;;;;;;;;;;;;5067370;28;19924;-65
2023/09/20 06:55:04;;;;;;;;;;;;;;;;;;5049490;28;19966;-65
2023/09/20 06:57:30;;;;;;;;;;;;;;;;;;5049973;28;19924;-65
2023/09/20 06:59:57;;;;;;;;;;;;;;;;;;5047628;28;20382;-64
2023/09/20 07:02:24;;;;;;;;;;;;;;;;;;5050545;28;19960;-65
2023/09/20 07:04:50;;;;;;;;;;;;;;;;;;5049658;28;20461;-65
2023/09/20 07:07:17;;;;;;;;;;;;;;;;;;5051911;28;19921;-64
2023/09/20 07:09:43;;;;;;;;;;;;;;;;;;5049881;28;19925;-64
2023/09/20 07:12:09;;;;;;;;;;;;;;;;;;5049816;28;20228;-64
2023/09/20 07:14:34;;;;;;;;;;;;;;;;;;5047207;28;19925;-64
2023/09/20 07:17:00;;;;;;;;;;;;;;;;;;5066617;28;19924;-64
2023/09/20 07:19:26;;;;;;;;;;;;;;;;;;5047215;28;20019;-65
2023/09/20 07:21:52;;;;;;;;;;;;;;;;;;5049920;28;20271;-64
2023/09/20 07:24:24;;;;;;;;;;;;;;;;;;5046762;28;19932;-64
2023/09/20 07:26:51;;;;;;;;;;;;;;;;;;5035904;28;19960;-65
2023/09/20 07:29:17;;;;;;;;;;;;;;;;;;5050514;28;20285;-65
2023/09/20 07:31:45;;;;;;;;;;;;;;;;;;5048168;28;20027;-65
2023/09/20 07:34:12;;;;;;;;;;;;;;;;;;5046943;28;20266;-65
2023/09/20 07:36:40;;;;;;;;;;;;;;;;;;5050194;28;19931;-65
2023/09/20 07:39:08;;;;;;;;;;;;;;;;;;5047368;28;19921;-64
2023/09/20 07:41:34;;;;;;;;;;;;;;;;;;5044431;28;20022;-65
2023/09/20 07:44:00;;;;;;;;;;;;;;;;;;5043250;28;19924;-65
2023/09/20 07:46:26;;;;;;;;;;;;;;;;;;5065046;28;19993;-65
2023/09/20 07:48:52;;;;;;;;;;;;;;;;;;5047061;28;19964;-65
2023/09/20 07:51:23;;;;;;;;;;;;;;;;;;5048882;28;19925;-65
2023/09/20 07:53:53;;;;;;;;;;;;;;;;;;5045759;28;19925;-65
2023/09/20 07:56:20;;;;;;;;;;;;;;;;;;5043693;28;20384;-65
2023/09/20 07:58:46;;;;;;;;;;;;;;;;;;5049397;28;20274;-65
2023/09/20 08:01:21;;;;;;;;;;;;;;;;;;5044272;28;19928;-65
2023/09/20 08:03:53;;;;;;;;;;;;;;;;;;5050511;28;19976;-64
2023/09/20 08:06:19;;;;;;;;;;;;;;;;;;5063813;28;19931;-65
2023/09/20 08:08:45;;;;;;;;;;;;;;;;;;5048422;28;19967;-65
2023/09/20 08:11:11;;;;;;;;;;;;;;;;;;5046960;28;20056;-65
2023/09/20 08:13:37;;;;;;;;;;;;;;;;;;5054322;28;19924;-65
2023/09/20 08:16:08;;;;;;;;;;;;;;;;;;5051874;28;20357;-65
2023/09/20 08:21:18;;;;;;;;;;;;;;;;;;5049979;28;20015;-65
2023/09/20 09:02:07;;;;;;;;;;;;;;;;;;5047662;28;20019;-65
2023/09/20 09:04:33;;;;;;;;;;;;;;;;;;5060074;28;20019;-65
2023/09/20 09:06:59;;;;;;;;;;;;;;;;;;5053283;28;20313;-65
2023/09/20 09:09:25;;;;;;;;;;;;;;;;;;5045568;28;19921;-65
2023/09/20 09:11:51;;;;;;;;;;;;;;;;;;5044291;28;19925;-65
2023/09/20 09:14:17;;;;;;;;;;;;;;;;;;5051831;28;20016;-65
2023/09/20 09:16:43;;;;;;;;;;;;;;;;;;5042683;28;20429;-65
2023/09/20 09:19:09;;;;;;;;;;;;;;;;;;5052706;28;19921;-65
2023/09/20 09:21:35;;;;;;;;;;;;;;;;;;5061754;28;19921;-65
2023/09/20 09:24:01;;;;;;;;;;;;;;;;;;5051931;28;19933;-65
2023/09/20 09:26:27;;;;;;;;;;;;;;;;;;5051548;28;19925;-65
2023/09/20 09:28:53;;;;;;;;;;;;;;;;;;5045520;28;19921;-64
2023/09/20 09:31:19;;;;;;;;;;;;;;;;;;5061255;28;19982;-65
2023/09/20 09:33:46;;;;;;;;;;;;;;;;;;5051048;28;19925;-65
2023/09/20 09:36:13;;;;;;;;;;;;;;;;;;5042415;28;19928;-65
2023/09/20 09:38:39;;;;;;;;;;;;;;;;;;5045689;28;19971;-66
2023/09/20 09:41:08;;;;;;;;;;;;;;;;;;5048364;28;19921;-65
2023/09/20 09:43:34;;;;;;;;;;;;;;;;;;5046695;28;19944;-66
2023/09/20 09:46:00;;;;;;;;;;;;;;;;;;5044707;28;19943;-66
2023/09/20 09:48:27;;;;;;;;;;;;;;;;;;5045432;28;20378;-65
2023/09/20 09:50:53;;;;;;;;;;;;;;;;;;5051979;28;19925;-65
2023/09/20 09:53:20;;;;;;;;;;;;;;;;;;5048998;28;19920;-64
2023/09/20 09:55:46;;;;;;;;;;;;;;;;;;5060043;28;19996;-66
2023/09/20 09:58:12;;;;;;;;;;;;;;;;;;5046201;28;20066;-66
2023/09/20 10:00:39;;;;;;;;;;;;;;;;;;5039757;28;19932;-65
2023/09/20 10:03:06;;;;;;;;;;;;;;;;;;5043220;28;19929;-65
2023/09/20 10:05:32;;;;;;;;;;;;;;;;;;5060716;28;19921;-65
2023/09/20 10:08:01;;;;;;;;;;;;;;;;;;5046287;28;19932;-65
2023/09/20 10:10:27;;;;;;;;;;;;;;;;;;5032418;28;19932;-64
2023/09/20 10:12:53;;;;;;;;;;;;;;;;;;5041479;28;20018;-64
2023/09/20 10:15:19;;;;;;;;;;;;;;;;;;5047214;28;20007;-63
2023/09/20 10:17:45;;;;;;;;;;;;;;;;;;5050599;28;19925;-65
2023/09/20 10:20:15;;;;;;;;;;;;;;;;;;5047947;28;20394;-65
2023/09/20 10:22:43;;;;;;;;;;;;;;;;;;5046689;28;20667;-65
2023/09/20 10:25:09;;;;;;;;;;;;;;;;;;5055085;28;20396;-65
2023/09/20 10:27:35;;;;;;;;;;;;;;;;;;5063079;28;19972;-65
2023/09/20 10:30:01;;;;;;;;;;;;;;;;;;5054710;28;20008;-65
2023/09/20 10:32:27;;;;;;;;;;;;;;;;;;5038260;28;19967;-66
2023/09/20 10:34:53;;;;;;;;;;;;;;;;;;5051350;28;19928;-66
2023/09/20 10:37:19;;;;;;;;;;;;;;;;;;5045277;28;20372;-67
2023/09/20 10:39:46;;;;;;;;;;;;;;;;;;5043359;28;19921;-67
2023/09/20 10:42:12;;;;;;;;;;;;;;;;;;5048478;28;20261;-66
2023/09/20 10:44:40;;;;;;;;;;;;;;;;;;5050294;28;19920;-66
2023/09/20 10:47:06;;;;;;;;;;;;;;;;;;5047982;28;19975;-66
2023/09/20 10:49:32;;;;;;;;;;;;;;;;;;5051878;28;19920;-66
2023/09/20 10:51:58;;;;;;;;;;;;;;;;;;5045739;28;19936;-66
2023/09/20 10:54:25;;;;;;;;;;;;;;;;;;5049522;28;19920;-66
2023/09/20 10:56:51;;;;;;;;;;;;;;;;;;5054167;28;19925;-66
2023/09/20 10:59:17;;;;;;;;;;;;;;;;;;5061736;28;19986;-66
2023/09/20 11:01:43;;;;;;;;;;;;;;;;;;5038045;28;19921;-67
2023/09/20 11:04:11;;;;;;;;;;;;;;;;;;5043266;28;20213;-65
2023/09/20 11:06:37;;;;;;;;;;;;;;;;;;5045726;28;20348;-65
2023/09/20 11:09:11;;;;;;;;;;;;;;;;;;5047760;28;19932;-65
2023/09/20 11:11:37;;;;;;;;;;;;;;;;;;5044842;28;19928;-64
2023/09/20 11:14:03;;;;;;;;;;;;;;;;;;5051074;28;20652;-64
2023/09/20 11:16:29;;;;;;;;;;;;;;;;;;5046441;28;20027;-65
2023/09/20 11:18:56;;;;;;;;;;;;;;;;;;5051892;28;20342;-65
2023/09/20 11:21:22;;;;;;;;;;;;;;;;;;5049431;28;19975;-65
2023/09/20 11:23:48;;;;;;;;;;;;;;;;;;5051043;28;20038;-65
2023/09/20 11:26:18;;;;;;;;;;;;;;;;;;5045979;28;19928;-65
2023/09/20 11:28:43;;;;;;;;;;;;;;;;;;5043594;28;19975;-65
2023/09/20 11:31:10;;;;;;;;;;;;;;;;;;5044025;28;19924;-65
2023/09/20 11:33:36;;;;;;;;;;;;;;;;;;5042994;28;19947;-65
2023/09/20 11:36:02;;;;;;;;;;;;;;;;;;5029528;28;19925;-65
2023/09/20 11:38:28;;;;;;;;;;;;;;;;;;5034972;28;19975;-65
2023/09/20 11:40:53;;;;;;;;;;;;;;;;;;5048488;28;20016;-65
2023/09/20 11:43:20;;;;;;;;;;;;;;;;;;5040219;28;20003;-65
2023/09/20 11:45:47;;;;;;;;;;;;;;;;;;5048279;28;19947;-65
2023/09/20 11:48:13;;;;;;;;;;;;;;;;;;5043387;28;20350;-65
2023/09/20 11:50:39;;;;;;;;;;;;;;;;;;5048013;28;19929;-65
2023/09/20 11:53:05;;;;;;;;;;;;;;;;;;5046123;28;19925;-64
2023/09/20 11:55:31;;;;;;;;;;;;;;;;;;5049204;28;19960;-65
2023/09/20 11:57:57;;;;;;;;;;;;;;;;;;5046978;28;20400;-65
2023/09/20 12:00:26;;;;;;;;;;;;;;;;;;5046170;28;20295;-65
2023/09/20 12:02:53;;;;;;;;;;;;;;;;;;5028688;28;19952;-65
2023/09/20 12:05:21;;;;;;;;;;;;;;;;;;5062123;28;20010;-64
2023/09/20 12:07:47;;;;;;;;;;;;;;;;;;5050545;28;19964;-64
2023/09/20 12:10:13;;;;;;;;;;;;;;;;;;5046068;28;19971;-64
2023/09/20 12:12:39;;;;;;;;;;;;;;;;;;5049066;28;20366;-64
2023/09/20 12:15:06;;;;;;;;;;;;;;;;;;5048894;28;19924;-64
2023/09/20 12:17:32;;;;;;;;;;;;;;;;;;5035585;28;20015;-64
2023/09/20 12:19:58;;;;;;;;;;;;;;;;;;5048551;28;20007;-64
2023/09/20 12:22:23;;;;;;;;;;;;;;;;;;5050055;28;19924;-64
2023/09/20 12:24:49;;;;;;;;;;;;;;;;;;5051361;28;19924;-65
2023/09/20 12:27:17;;;;;;;;;;;;;;;;;;5052396;28;19921;-65
2023/09/20 12:29:43;;;;;;;;;;;;;;;;;;5049652;28;19920;-64
2023/09/20 12:32:11;;;;;;;;;;;;;;;;;;5048714;28;19928;-64
2023/09/20 12:34:36;;;;;;;;;;;;;;;;;;5052819;28;19960;-64
2023/09/20 12:37:02;;;;;;;;;;;;;;;;;;5049670;28;20338;-65
2023/09/20 12:39:29;;;;;;;;;;;;;;;;;;5038304;22;19930;-67
2023/09/20 12:41:54;;;;;;;;;;;;;;;;;;5026114;28;19967;-67
2023/09/20 12:44:22;;;;;;;;;;;;;;;;;;5028998;28;20370;-67
2023/09/20 12:46:48;;;;;;;;;;;;;;;;;;5026550;28;19928;-67
2023/09/20 12:49:14;;;;;;;;;;;;;;;;;;5022125;28;19921;-67
2023/09/20 12:51:40;;;;;;;;;;;;;;;;;;5030565;28;20380;-66
2023/09/20 12:54:06;;;;;;;;;;;;;;;;;;5048934;28;19925;-67
2023/09/20 12:56:32;;;;;;;;;;;;;;;;;;5028920;28;19927;-67
2023/09/20 12:58:58;;;;;;;;;;;;;;;;;;5025548;28;20377;-67
2023/09/20 13:01:24;;;;;;;;;;;;;;;;;;5014873;28;20278;-67
2023/09/20 13:03:51;;;;;;;;;;;;;;;;;;5029575;28;19928;-66
2023/09/20 13:06:17;;;;;;;;;;;;;;;;;;5028613;28;19959;-66
2023/09/20 13:08:44;;;;;;;;;;;;;;;;;;5044012;28;19925;-67
2023/09/20 13:11:10;;;;;;;;;;;;;;;;;;5033110;28;19929;-67
2023/09/20 13:13:38;;;;;;;;;;;;;;;;;;5010308;28;19957;-67
2023/09/20 13:16:06;;;;;;;;;;;;;;;;;;5028878;28;19925;-67
2023/09/20 13:18:32;;;;;;;;;;;;;;;;;;5028243;28;19928;-67
2023/09/20 13:20:58;;;;;;;;;;;;;;;;;;5030534;28;19952;-66
2023/09/20 13:23:25;;;;;;;;;;;;;;;;;;5026852;28;19997;-67
2023/09/20 13:25:52;;;;;;;;;;;;;;;;;;5030431;28;19978;-67
2023/09/20 13:28:18;;;;;;;;;;;;;;;;;;5027101;28;19922;-67
2023/09/20 13:30:44;;;;;;;;;;;;;;;;;;5041832;28;19983;-66
2023/09/20 13:33:12;;;;;;;;;;;;;;;;;;5032613;28;20248;-66
2023/09/20 13:35:39;;;;;;;;;;;;;;;;;;5029191;28;19925;-67
2023/09/20 13:38:05;;;;;;;;;;;;;;;;;;5034177;28;19920;-66
2023/09/20 13:40:31;;;;;;;;;;;;;;;;;;5031674;28;19932;-66
2023/09/20 13:43:00;;;;;;;;;;;;;;;;;;5040002;28;19926;-67
2023/09/20 13:45:26;;;;;;;;;;;;;;;;;;5037610;28;19929;-67
2023/09/20 13:47:52;;;;;;;;;;;;;;;;;;5026987;28;20305;-67
2023/09/20 13:50:18;;;;;;;;;;;;;;;;;;5031977;28;19921;-67
2023/09/20 13:52:44;;;;;;;;;;;;;;;;;;5016406;28;19929;-67
2023/09/20 13:55:11;;;;;;;;;;;;;;;;;;5032867;28;19924;-67
2023/09/20 13:57:37;;;;;;;;;;;;;;;;;;5029336;28;20358;-67
2023/09/20 14:00:03;;;;;;;;;;;;;;;;;;5017188;28;19928;-67
2023/09/20 14:02:29;;;;;;;;;;;;;;;;;;5028961;28;21490;-67
2023/09/20 14:04:55;;;;;;;;;;;;;;;;;;5022809;28;19925;-67
2023/09/20 14:07:21;;;;;;;;;;;;;;;;;;5031413;28;19986;-67
2023/09/20 14:09:47;;;;;;;;;;;;;;;;;;5029282;28;19921;-67
2023/09/20 14:12:15;;;;;;;;;;;;;;;;;;5031640;28;19925;-67
2023/09/20 14:14:41;;;;;;;;;;;;;;;;;;5029419;28;19932;-66
2023/09/20 14:17:07;;;;;;;;;;;;;;;;;;5026297;28;19921;-67
2023/09/20 14:19:36;;;;;;;;;;;;;;;;;;5031600;28;20503;-67
2023/09/20 14:22:02;;;;;;;;;;;;;;;;;;5023512;28;19936;-67
2023/09/20 14:24:27;;;;;;;;;;;;;;;;;;5031343;28;19936;-67
2023/09/20 14:26:55;;;;;;;;;;;;;;;;;;5026517;28;19921;-67
2023/09/20 14:29:21;;;;;;;;;;;;;;;;;;5029289;28;19968;-67
2023/09/20 14:31:48;;;;;;;;;;;;;;;;;;5023854;28;20354;-66
2023/09/20 14:34:14;;;;;;;;;;;;;;;;;;5026907;28;20373;-67
2023/09/20 14:36:44;;;;;;;;;;;;;;;;;;5024949;28;19935;-67
2023/09/20 14:39:10;;;;;;;;;;;;;;;;;;5026561;28;19964;-66
2023/09/20 14:41:36;;;;;;;;;;;;;;;;;;5029411;28;20417;-67
2023/09/20 14:44:02;;;;;;;;;;;;;;;;;;5011388;28;19925;-66
2023/09/20 14:46:28;;;;;;;;;;;;;;;;;;5024798;28;20502;-66
2023/09/20 14:48:54;;;;;;;;;;;;;;;;;;5026419;28;19925;-66
2023/09/20 14:51:20;;;;;;;;;;;;;;;;;;5025061;28;19925;-67
2023/09/20 14:53:46;;;;;;;;;;;;;;;;;;5029929;28;19925;-67
2023/09/20 14:56:13;;;;;;;;;;;;;;;;;;5021754;28;20571;-67
2023/09/20 14:58:39;;;;;;;;;;;;;;;;;;5018577;28;20298;-67
2023/09/20 15:01:05;;;;;;;;;;;;;;;;;;5028742;28;19929;-66
2023/09/20 15:03:32;;;;;;;;;;;;;;;;;;5030321;28;19936;-67
2023/09/20 15:05:58;;;;;;;;;;;;;;;;;;5026621;28;19960;-67
2023/09/20 15:08:25;;;;;;;;;;;;;;;;;;5028165;28;19968;-67
2023/09/20 15:10:51;;;;;;;;;;;;;;;;;;5023815;28;19932;-66
2023/09/20 15:13:19;;;;;;;;;;;;;;;;;;5030921;28;19921;-66
2023/09/20 15:15:45;;;;;;;;;;;;;;;;;;5022929;28;20322;-66
2023/09/20 15:18:11;;;;;;;;;;;;;;;;;;5026745;28;19961;-66
2023/09/20 15:20:37;;;;;;;;;;;;;;;;;;5022319;28;19921;-65
2023/09/20 15:23:05;;;;;;;;;;;;;;;;;;5028211;28;19932;-65
2023/09/20 15:25:31;;;;;;;;;;;;;;;;;;5023014;28;19943;-65
2023/09/20 15:27:57;;;;;;;;;;;;;;;;;;5029829;28;19921;-67
2023/09/20 15:30:24;;;;;;;;;;;;;;;;;;5026504;28;19926;-66
2023/09/20 15:32:50;;;;;;;;;;;;;;;;;;5023899;28;19929;-66
2023/09/20 15:35:16;;;;;;;;;;;;;;;;;;5030217;28;20405;-67
2023/09/20 15:37:43;;;;;;;;;;;;;;;;;;5029591;28;19925;-66
2023/09/20 15:40:09;;;;;;;;;;;;;;;;;;5036100;28;20635;-66
2023/09/20 15:42:35;;;;;;;;;;;;;;;;;;5033716;28;20388;-66
2023/09/20 15:45:01;;;;;;;;;;;;;;;;;;5034121;28;19920;-66
2023/09/20 15:47:27;;;;;;;;;;;;;;;;;;5029143;28;19921;-66
2023/09/20 15:49:55;;;;;;;;;;;;;;;;;;5030932;28;19925;-66
2023/09/20 15:52:20;;;;;;;;;;;;;;;;;;5026263;28;19928;-65
2023/09/20 15:54:46;;;;;;;;;;;;;;;;;;5020496;28;19929;-66
2023/09/20 15:57:12;;;;;;;;;;;;;;;;;;5044218;28;19921;-66
2023/09/20 15:59:41;;;;;;;;;;;;;;;;;;5030125;28;19921;-66
2023/09/20 16:02:08;;;;;;;;;;;;;;;;;;5027012;28;19928;-66
2023/09/20 16:04:34;;;;;;;;;;;;;;;;;;5026570;28;20326;-66
2023/09/20 16:07:02;;;;;;;;;;;;;;;;;;5033703;28;19932;-67
2023/09/20 16:09:28;;;;;;;;;;;;;;;;;;5029409;28;19975;-67
2023/09/20 16:11:54;;;;;;;;;;;;;;;;;;5026339;28;19960;-66
2023/09/20 16:14:20;;;;;;;;;;;;;;;;;;5027006;28;20012;-66
2023/09/20 16:16:46;;;;;;;;;;;;;;;;;;5027893;28;20019;-66
2023/09/20 16:19:13;;;;;;;;;;;;;;;;;;5030427;28;20274;-67
2023/09/20 16:21:39;;;;;;;;;;;;;;;;;;5029670;28;20443;-66
2023/09/20 16:24:09;;;;;;;;;;;;;;;;;;5030026;28;19929;-66
2023/09/20 16:26:37;;;;;;;;;;;;;;;;;;5024480;28;20421;-66
2023/09/20 16:29:04;;;;;;;;;;;;;;;;;;5023577;28;19960;-67
2023/09/20 16:31:31;;;;;;;;;;;;;;;;;;5029609;28;19937;-67
2023/09/20 16:33:57;;;;;;;;;;;;;;;;;;5028054;28;19925;-66
2023/09/20 16:36:24;;;;;;;;;;;;;;;;;;5044887;28;19932;-67
2023/09/20 16:38:51;;;;;;;;;;;;;;;;;;5024137;28;19929;-67
2023/09/20 16:41:18;;;;;;;;;;;;;;;;;;5031860;28;19925;-66
2023/09/20 16:43:44;;;;;;;;;;;;;;;;;;5028099;28;20299;-66
2023/09/20 16:46:10;;;;;;;;;;;;;;;;;;5032234;28;20011;-65
2023/09/20 16:48:36;;;;;;;;;;;;;;;;;;5031252;28;19965;-65
2023/09/20 16:51:03;;;;;;;;;;;;;;;;;;5029796;28;20014;-66
2023/09/20 16:53:30;;;;;;;;;;;;;;;;;;5027298;28;20350;-66
2023/09/20 16:55:56;;;;;;;;;;;;;;;;;;5029194;28;19921;-67
2023/09/20 16:58:22;;;;;;;;;;;;;;;;;;5030368;28;20015;-67
2023/09/20 17:00:47;;;;;;;;;;;;;;;;;;5026956;28;19927;-66
2023/09/20 17:03:13;;;;;;;;;;;;;;;;;;5031962;28;19984;-66
2023/09/20 17:05:41;;;;;;;;;;;;;;;;;;5033135;28;19929;-67
2023/09/20 17:08:06;;;;;;;;;;;;;;;;;;5030989;28;19925;-67
2023/09/20 17:10:32;;;;;;;;;;;;;;;;;;5026597;28;19928;-66
2023/09/20 17:12:59;;;;;;;;;;;;;;;;;;5025316;28;19920;-66
2023/09/20 17:15:28;;;;;;;;;;;;;;;;;;5033905;28;20495;-67
2023/09/20 17:17:53;;;;;;;;;;;;;;;;;;5030688;28;20271;-66
2023/09/20 17:20:19;;;;;;;;;;;;;;;;;;5028421;28;19931;-66
2023/09/20 17:22:46;;;;;;;;;;;;;;;;;;5031244;28;19925;-66